sensor_id;sensor_type;location;lat;lon;timestamp;pressure;altitude;pressure_sealevel;temperature;humidity
30516;BME280;17297;54.022;10.760;2023-03-23T00:01:04;100183.19;;;13.80;66.99
30516;BME280;17297;54.022;10.760;2023-03-23T00:03:30;100175.91;;;13.81;66.98
30516;BME280;17297;54.022;10.760;2023-03-23T00:05:58;100176.94;;;13.80;67.08
30516;BME280;17297;54.022;10.760;2023-03-23T00:08:29;100168.25;;;13.78;67.00
30516;BME280;17297;54.022;10.760;2023-03-23T00:10:55;100165.53;;;13.78;67.07
30516;BME280;17297;54.022;10.760;2023-03-23T00:13:25;100163.88;;;13.77;67.13
30516;BME280;17297;54.022;10.760;2023-03-23T00:15:51;100165.75;;;13.76;67.29
30516;BME280;17297;54.022;10.760;2023-03-23T00:18:22;100166.56;;;13.77;67.17
30516;BME280;17297;54.022;10.760;2023-03-23T00:20:52;100156.81;;;13.76;67.15
30516;BME280;17297;54.022;10.760;2023-03-23T00:23:19;100164.13;;;13.75;67.15
30516;BME280;17297;54.022;10.760;2023-03-23T00:25:51;100158.94;;;13.74;67.33
30516;BME280;17297;54.022;10.760;2023-03-23T00:28:21;100151.88;;;13.73;67.35
30516;BME280;17297;54.022;10.760;2023-03-23T00:31:04;100151.06;;;13.72;67.45
30516;BME280;17297;54.022;10.760;2023-03-23T00:33:32;100144.81;;;13.72;67.27
30516;BME280;17297;54.022;10.760;2023-03-23T00:35:59;100141.50;;;13.70;67.34
30516;BME280;17297;54.022;10.760;2023-03-23T00:38:25;100142.13;;;13.72;67.53
30516;BME280;17297;54.022;10.760;2023-03-23T00:40:52;100152.94;;;13.72;67.39
30516;BME280;17297;54.022;10.760;2023-03-23T00:43:20;100153.16;;;13.70;67.40
30516;BME280;17297;54.022;10.760;2023-03-23T00:45:46;100141.31;;;13.71;67.54
30516;BME280;17297;54.022;10.760;2023-03-23T00:48:28;100151.75;;;13.68;67.46
30516;BME280;17297;54.022;10.760;2023-03-23T00:50:54;100150.69;;;13.69;67.48
30516;BME280;17297;54.022;10.760;2023-03-23T00:53:20;100144.47;;;13.68;67.48
30516;BME280;17297;54.022;10.760;2023-03-23T00:55:47;100154.44;;;13.68;67.74
30516;BME280;17297;54.022;10.760;2023-03-23T00:58:13;100150.91;;;13.67;67.59
30516;BME280;17297;54.022;10.760;2023-03-23T01:00:39;100139.28;;;13.67;67.63
30516;BME280;17297;54.022;10.760;2023-03-23T01:03:06;100134.94;;;13.66;67.76
30516;BME280;17297;54.022;10.760;2023-03-23T01:05:36;100132.22;;;13.66;67.64
30516;BME280;17297;54.022;10.760;2023-03-23T01:08:02;100130.34;;;13.66;67.76
30516;BME280;17297;54.022;10.760;2023-03-23T01:10:29;100126.81;;;13.66;67.78
30516;BME280;17297;54.022;10.760;2023-03-23T01:13:01;100126.00;;;13.65;67.81
30516;BME280;17297;54.022;10.760;2023-03-23T01:15:28;100118.91;;;13.64;67.92
30516;BME280;17297;54.022;10.760;2023-03-23T01:17:54;100121.63;;;13.64;67.99
30516;BME280;17297;54.022;10.760;2023-03-23T01:20:20;100104.38;;;13.65;67.94
30516;BME280;17297;54.022;10.760;2023-03-23T01:22:45;100105.19;;;13.66;67.94
30516;BME280;17297;54.022;10.760;2023-03-23T01:25:13;100112.69;;;13.63;68.08
30516;BME280;17297;54.022;10.760;2023-03-23T01:27:39;100106.25;;;13.65;68.02
30516;BME280;17297;54.022;10.760;2023-03-23T01:30:06;100102.50;;;13.66;68.21
30516;BME280;17297;54.022;10.760;2023-03-23T01:32:32;100098.97;;;13.65;68.08
30516;BME280;17297;54.022;10.760;2023-03-23T01:34:58;100102.72;;;13.64;67.93
30516;BME280;17297;54.022;10.760;2023-03-23T01:37:23;100087.34;;;13.65;68.21
30516;BME280;17297;54.022;10.760;2023-03-23T01:39:53;100081.94;;;13.65;68.14
30516;BME280;17297;54.022;10.760;2023-03-23T01:42:25;100078.38;;;13.64;68.36
30516;BME280;17297;54.022;10.760;2023-03-23T01:47:19;100079.22;;;13.65;68.42
30516;BME280;17297;54.022;10.760;2023-03-23T01:49:49;100068.44;;;13.65;68.33
30516;BME280;17297;54.022;10.760;2023-03-23T01:52:22;100069.25;;;13.65;68.36
30516;BME280;17297;54.022;10.760;2023-03-23T01:54:51;100069.25;;;13.65;68.46
30516;BME280;17297;54.022;10.760;2023-03-23T01:57:20;100072.75;;;13.66;68.47
30516;BME280;17297;54.022;10.760;2023-03-23T01:59:50;100060.06;;;13.66;68.44
30516;BME280;17297;54.022;10.760;2023-03-23T02:02:23;100062.78;;;13.66;68.47
30516;BME280;17297;54.022;10.760;2023-03-23T02:04:50;100057.38;;;13.66;68.59
30516;BME280;17297;54.022;10.760;2023-03-23T02:07:20;100061.72;;;13.67;68.74
30516;BME280;17297;54.022;10.760;2023-03-23T02:09:47;100064.19;;;13.69;68.64
30516;BME280;17297;54.022;10.760;2023-03-23T02:12:14;100062.56;;;13.68;68.70
30516;BME280;17297;54.022;10.760;2023-03-23T02:14:40;100045.50;;;13.67;68.68
30516;BME280;17297;54.022;10.760;2023-03-23T02:17:10;100035.53;;;13.68;68.94
30516;BME280;17297;54.022;10.760;2023-03-23T02:20:06;100040.09;;;13.67;69.10
30516;BME280;17297;54.022;10.760;2023-03-23T02:31:44;100028.72;;;13.65;68.88
30516;BME280;17297;54.022;10.760;2023-03-23T02:34:18;100027.88;;;13.65;68.92
30516;BME280;17297;54.022;10.760;2023-03-23T02:36:56;100022.69;;;13.63;68.88
30516;BME280;17297;54.022;10.760;2023-03-23T02:39:57;100027.28;;;13.62;69.03
30516;BME280;17297;54.022;10.760;2023-03-23T02:42:28;100023.50;;;13.63;69.11
30516;BME280;17297;54.022;10.760;2023-03-23T02:44:58;100019.78;;;13.65;69.09
30516;BME280;17297;54.022;10.760;2023-03-23T02:47:26;100002.72;;;13.64;69.16
30516;BME280;17297;54.022;10.760;2023-03-23T02:49:54;100013.53;;;13.64;69.19
30516;BME280;17297;54.022;10.760;2023-03-23T02:52:40;100010.81;;;13.64;69.26
30516;BME280;17297;54.022;10.760;2023-03-23T02:55:08;100003.31;;;13.66;69.20
30516;BME280;17297;54.022;10.760;2023-03-23T02:57:37;99998.97;;;13.65;69.29
30516;BME280;17297;54.022;10.760;2023-03-23T03:00:06;99993.56;;;13.65;69.41
30516;BME280;17297;54.022;10.760;2023-03-23T03:02:39;99991.69;;;13.66;69.37
30516;BME280;17297;54.022;10.760;2023-03-23T03:05:15;99984.41;;;13.66;69.47
30516;BME280;17297;54.022;10.760;2023-03-23T03:13:22;99969.25;;;13.65;69.57
30516;BME280;17297;54.022;10.760;2023-03-23T03:18:34;99963.03;;;13.65;69.58
30516;BME280;17297;54.022;10.760;2023-03-23T03:21:06;99968.44;;;13.65;69.62
30516;BME280;17297;54.022;10.760;2023-03-23T03:23:35;99966.53;;;13.65;69.61
30516;BME280;17297;54.022;10.760;2023-03-23T03:26:04;99955.50;;;13.67;69.83
30516;BME280;17297;54.022;10.760;2023-03-23T03:28:40;99961.72;;;13.67;69.38
30516;BME280;17297;54.022;10.760;2023-03-23T03:31:06;99972.53;;;13.67;69.65
30516;BME280;17297;54.022;10.760;2023-03-23T03:33:32;99976.28;;;13.66;69.70
30516;BME280;17297;54.022;10.760;2023-03-23T03:36:04;99977.94;;;13.67;69.78
30516;BME280;17297;54.022;10.760;2023-03-23T03:38:44;99967.13;;;13.67;69.78
30516;BME280;17297;54.022;10.760;2023-03-23T03:41:10;99959.00;;;13.67;69.75
30516;BME280;17297;54.022;10.760;2023-03-23T03:43:38;99969.00;;;13.67;69.79
30516;BME280;17297;54.022;10.760;2023-03-23T03:46:04;99951.97;;;13.66;69.78
30516;BME280;17297;54.022;10.760;2023-03-23T03:48:31;99956.31;;;13.67;69.83
30516;BME280;17297;54.022;10.760;2023-03-23T03:50:56;99934.69;;;13.67;69.86
30516;BME280;17297;54.022;10.760;2023-03-23T03:53:23;99918.47;;;13.67;69.94
30516;BME280;17297;54.022;10.760;2023-03-23T03:55:49;99924.72;;;13.68;70.00
30516;BME280;17297;54.022;10.760;2023-03-23T03:58:16;99928.25;;;13.68;69.85
30516;BME280;17297;54.022;10.760;2023-03-23T04:01:03;99926.59;;;13.67;69.89
30516;BME280;17297;54.022;10.760;2023-03-23T04:03:33;99916.63;;;13.68;69.82
30516;BME280;17297;54.022;10.760;2023-03-23T04:06:05;99923.88;;;13.67;69.96
30516;BME280;17297;54.022;10.760;2023-03-23T04:08:34;99929.28;;;13.67;70.17
30516;BME280;17297;54.022;10.760;2023-03-23T04:11:00;99936.34;;;13.68;70.23
30516;BME280;17297;54.022;10.760;2023-03-23T04:13:28;99920.13;;;13.68;70.17
30516;BME280;17297;54.022;10.760;2023-03-23T04:16:20;99927.19;;;13.69;70.05
30516;BME280;17297;54.022;10.760;2023-03-23T04:18:46;99935.28;;;13.69;70.20
30516;BME280;17297;54.022;10.760;2023-03-23T04:21:14;99934.22;;;13.70;70.15
30516;BME280;17297;54.022;10.760;2023-03-23T04:23:39;99940.47;;;13.71;70.14
30516;BME280;17297;54.022;10.760;2023-03-23T04:26:06;99928.59;;;13.72;70.42
30516;BME280;17297;54.022;10.760;2023-03-23T04:28:39;99933.19;;;13.71;70.42
30516;BME280;17297;54.022;10.760;2023-03-23T04:31:28;99952.91;;;13.72;70.37
30516;BME280;17297;54.022;10.760;2023-03-23T04:34:07;99940.22;;;13.72;70.37
30516;BME280;17297;54.022;10.760;2023-03-23T04:36:39;99947.28;;;13.73;70.46
30516;BME280;17297;54.022;10.760;2023-03-23T04:39:12;99944.56;;;13.73;70.46
30516;BME280;17297;54.022;10.760;2023-03-23T04:41:41;99937.53;;;13.72;70.52
30516;BME280;17297;54.022;10.760;2023-03-23T04:44:29;99952.69;;;13.73;70.42
30516;BME280;17297;54.022;10.760;2023-03-23T04:47:10;99949.41;;;13.71;70.39
30516;BME280;17297;54.022;10.760;2023-03-23T04:49:42;99942.72;;;13.74;70.36
30516;BME280;17297;54.022;10.760;2023-03-23T04:52:15;99941.03;;;13.73;70.48
30516;BME280;17297;54.022;10.760;2023-03-23T04:54:43;99959.75;;;13.74;70.58
30516;BME280;17297;54.022;10.760;2023-03-23T04:57:10;99958.09;;;13.73;70.69
30516;BME280;17297;54.022;10.760;2023-03-23T04:59:42;99943.75;;;13.73;70.68
30516;BME280;17297;54.022;10.760;2023-03-23T05:02:18;99932.72;;;13.74;70.58
30516;BME280;17297;54.022;10.760;2023-03-23T05:04:45;99936.47;;;13.73;70.72
30516;BME280;17297;54.022;10.760;2023-03-23T05:07:16;99948.13;;;13.74;70.75
30516;BME280;17297;54.022;10.760;2023-03-23T05:09:47;99948.94;;;13.74;70.79
30516;BME280;17297;54.022;10.760;2023-03-23T05:12:13;99951.63;;;13.74;70.78
30516;BME280;17297;54.022;10.760;2023-03-23T05:15:06;99953.53;;;13.74;70.72
30516;BME280;17297;54.022;10.760;2023-03-23T05:17:33;99955.38;;;13.73;70.76
30516;BME280;17297;54.022;10.760;2023-03-23T05:20:04;99951.84;;;13.73;70.84
30516;BME280;17297;54.022;10.760;2023-03-23T05:22:37;99949.50;;;13.76;70.23
30516;BME280;17297;54.022;10.760;2023-03-23T05:25:05;99952.31;;;13.70;70.49
30516;BME280;17297;54.022;10.760;2023-03-23T05:27:38;99950.44;;;13.70;70.64
30516;BME280;17297;54.022;10.760;2023-03-23T05:30:17;99938.81;;;13.70;70.64
30516;BME280;17297;54.022;10.760;2023-03-23T05:32:43;99944.22;;;13.70;70.65
30516;BME280;17297;54.022;10.760;2023-03-23T05:35:29;99946.09;;;13.69;70.66
30516;BME280;17297;54.022;10.760;2023-03-23T05:37:55;99936.09;;;13.70;70.79
30516;BME280;17297;54.022;10.760;2023-03-23T05:40:22;99935.28;;;13.69;70.73
30516;BME280;17297;54.022;10.760;2023-03-23T05:42:54;99924.47;;;13.69;70.81
30516;BME280;17297;54.022;10.760;2023-03-23T05:45:29;99933.19;;;13.71;70.81
30516;BME280;17297;54.022;10.760;2023-03-23T05:47:55;99925.06;;;13.71;70.76
30516;BME280;17297;54.022;10.760;2023-03-23T05:50:34;99936.72;;;13.72;70.93
30516;BME280;17297;54.022;10.760;2023-03-23T05:53:03;99928.59;;;13.72;71.01
30516;BME280;17297;54.022;10.760;2023-03-23T05:55:34;99926.72;;;13.72;70.84
30516;BME280;17297;54.022;10.760;2023-03-23T05:58:09;99920.25;;;13.73;70.85
30516;BME280;17297;54.022;10.760;2023-03-23T06:00:40;99919.22;;;13.74;70.88
30516;BME280;17297;54.022;10.760;2023-03-23T06:03:16;99920.84;;;13.75;70.82
30516;BME280;17297;54.022;10.760;2023-03-23T06:05:48;99909.44;;;13.73;70.79
30516;BME280;17297;54.022;10.760;2023-03-23T06:08:17;99912.72;;;13.75;70.95
30516;BME280;17297;54.022;10.760;2023-03-23T06:10:43;99911.66;;;13.76;71.03
30516;BME280;17297;54.022;10.760;2023-03-23T06:13:10;99906.25;;;13.76;71.03
30516;BME280;17297;54.022;10.760;2023-03-23T06:15:43;99914.38;;;13.76;70.89
30516;BME280;17297;54.022;10.760;2023-03-23T06:18:17;99916.84;;;13.78;71.04
30516;BME280;17297;54.022;10.760;2023-03-23T06:21:10;99911.19;;;13.79;70.94
30516;BME280;17297;54.022;10.760;2023-03-23T06:23:50;99903.09;;;13.79;70.92
30516;BME280;17297;54.022;10.760;2023-03-23T06:26:18;99897.69;;;13.79;71.12
30516;BME280;17297;54.022;10.760;2023-03-23T06:28:48;99898.28;;;13.81;70.92
30516;BME280;17297;54.022;10.760;2023-03-23T06:31:14;99903.22;;;13.84;71.15
30516;BME280;17297;54.022;10.760;2023-03-23T06:33:40;99901.56;;;13.95;71.28
30516;BME280;17297;54.022;10.760;2023-03-23T06:36:26;99898.38;;;14.10;71.36
30516;BME280;17297;54.022;10.760;2023-03-23T06:39:07;99896.75;;;14.21;71.23
30516;BME280;17297;54.022;10.760;2023-03-23T06:41:46;99893.19;;;14.32;71.22
30516;BME280;17297;54.022;10.760;2023-03-23T06:44:11;99892.69;;;14.47;71.29
30516;BME280;17297;54.022;10.760;2023-03-23T06:46:45;99894.66;;;14.63;71.33
30516;BME280;17297;54.022;10.760;2023-03-23T06:49:16;99900.38;;;14.78;71.16
30516;BME280;17297;54.022;10.760;2023-03-23T06:51:53;99897.63;;;14.90;71.02
30516;BME280;17297;54.022;10.760;2023-03-23T06:54:21;99903.00;;;15.02;70.83
30516;BME280;17297;54.022;10.760;2023-03-23T06:56:48;99900.16;;;15.25;70.97
30516;BME280;17297;54.022;10.760;2023-03-23T06:59:13;99908.31;;;15.59;71.18
30516;BME280;17297;54.022;10.760;2023-03-23T07:01:39;99912.69;;;15.94;70.92
30516;BME280;17297;54.022;10.760;2023-03-23T07:04:08;99906.47;;;16.15;70.23
30516;BME280;17297;54.022;10.760;2023-03-23T07:06:46;99904.66;;;16.21;69.64
30516;BME280;17297;54.022;10.760;2023-03-23T07:09:12;99907.06;;;16.17;69.47
30516;BME280;17297;54.022;10.760;2023-03-23T07:11:37;99913.72;;;16.10;69.24
30516;BME280;17297;54.022;10.760;2023-03-23T07:14:12;99901.66;;;16.01;69.05
30516;BME280;17297;54.022;10.760;2023-03-23T07:16:39;99907.53;;;15.92;69.11
30516;BME280;17297;54.022;10.760;2023-03-23T07:19:04;99898.97;;;15.84;69.19
30516;BME280;17297;54.022;10.760;2023-03-23T07:21:30;99912.44;;;15.79;69.01
30516;BME280;17297;54.022;10.760;2023-03-23T07:23:56;99902.03;;;15.70;69.28
30516;BME280;17297;54.022;10.760;2023-03-23T07:26:48;99900.97;;;15.72;69.18
30516;BME280;17297;54.022;10.760;2023-03-23T07:29:13;99895.28;;;15.73;69.16
30516;BME280;17297;54.022;10.760;2023-03-23T07:31:45;99893.72;;;15.77;69.33
30516;BME280;17297;54.022;10.760;2023-03-23T07:34:12;99890.84;;;15.84;69.17
30516;BME280;17297;54.022;10.760;2023-03-23T07:36:59;99876.94;;;15.97;69.44
30516;BME280;17297;54.022;10.760;2023-03-23T07:39:27;99881.88;;;16.22;69.59
30516;BME280;17297;54.022;10.760;2023-03-23T07:41:55;99878.88;;;16.40;69.36
30516;BME280;17297;54.022;10.760;2023-03-23T07:44:34;99880.38;;;16.75;69.17
30516;BME280;17297;54.022;10.760;2023-03-23T07:47:05;99886.44;;;17.09;68.91
30516;BME280;17297;54.022;10.760;2023-03-23T07:49:32;99880.78;;;17.43;68.81
30516;BME280;17297;54.022;10.760;2023-03-23T07:52:09;99894.28;;;17.65;67.92
30516;BME280;17297;54.022;10.760;2023-03-23T07:54:36;99892.94;;;17.68;67.04
30516;BME280;17297;54.022;10.760;2023-03-23T07:57:06;99891.22;;;17.57;66.83
30516;BME280;17297;54.022;10.760;2023-03-23T07:59:38;99886.72;;;17.40;66.51
30516;BME280;17297;54.022;10.760;2023-03-23T08:02:04;99883.06;;;17.24;66.54
30516;BME280;17297;54.022;10.760;2023-03-23T08:04:47;99878.50;;;17.03;66.51
30516;BME280;17297;54.022;10.760;2023-03-23T08:07:13;99894.09;;;16.85;66.60
30516;BME280;17297;54.022;10.760;2023-03-23T08:10:00;99899.00;;;16.67;66.63
30516;BME280;17297;54.022;10.760;2023-03-23T08:12:35;99894.22;;;16.52;67.03
30516;BME280;17297;54.022;10.760;2023-03-23T08:15:18;99902.34;;;16.30;66.82
30516;BME280;17297;54.022;10.760;2023-03-23T08:18:03;99909.69;;;16.12;66.99
30516;BME280;17297;54.022;10.760;2023-03-23T08:20:48;99923.53;;;15.94;67.13
30516;BME280;17297;54.022;10.760;2023-03-23T08:23:31;99965.03;;;15.78;66.95
30516;BME280;17297;54.022;10.760;2023-03-23T08:26:16;99950.63;;;15.60;67.12
30516;BME280;17297;54.022;10.760;2023-03-23T08:28:57;99943.06;;;15.45;67.23
30516;BME280;17297;54.022;10.760;2023-03-23T08:31:28;99946.66;;;15.34;67.35
30516;BME280;17297;54.022;10.760;2023-03-23T08:34:03;99947.28;;;15.24;67.41
30516;BME280;17297;54.022;10.760;2023-03-23T08:37:05;99940.34;;;15.17;67.47
30516;BME280;17297;54.022;10.760;2023-03-23T08:39:54;99941.81;;;15.08;67.40
30516;BME280;17297;54.022;10.760;2023-03-23T08:42:39;99939.25;;;15.01;67.48
30516;BME280;17297;54.022;10.760;2023-03-23T08:45:16;99942.69;;;14.96;67.65
30516;BME280;17297;54.022;10.760;2023-03-23T08:48:00;99952.38;;;14.92;67.65
30516;BME280;17297;54.022;10.760;2023-03-23T08:50:44;99953.09;;;14.88;67.60
30516;BME280;17297;54.022;10.760;2023-03-23T08:53:30;99953.56;;;14.85;67.75
30516;BME280;17297;54.022;10.760;2023-03-23T08:56:21;99953.44;;;14.79;67.66
30516;BME280;17297;54.022;10.760;2023-03-23T08:59:05;99946.41;;;14.78;67.83
30516;BME280;17297;54.022;10.760;2023-03-23T09:01:45;99953.44;;;14.79;67.84
30516;BME280;17297;54.022;10.760;2023-03-23T09:04:24;99955.94;;;14.81;67.94
30516;BME280;17297;54.022;10.760;2023-03-23T09:07:01;99957.34;;;14.84;68.10
30516;BME280;17297;54.022;10.760;2023-03-23T09:09:27;99954.97;;;14.87;68.38
30516;BME280;17297;54.022;10.760;2023-03-23T09:11:53;99959.91;;;14.90;68.30
30516;BME280;17297;54.022;10.760;2023-03-23T09:14:18;99954.00;;;14.93;68.29
30516;BME280;17297;54.022;10.760;2023-03-23T09:16:44;99956.25;;;14.96;68.46
30516;BME280;17297;54.022;10.760;2023-03-23T09:19:10;99950.56;;;14.98;68.47
30516;BME280;17297;54.022;10.760;2023-03-23T09:21:38;99950.09;;;15.01;68.41
30516;BME280;17297;54.022;10.760;2023-03-23T09:24:04;99946.06;;;15.04;68.46
30516;BME280;17297;54.022;10.760;2023-03-23T09:26:30;99947.50;;;15.06;68.57
30516;BME280;17297;54.022;10.760;2023-03-23T09:28:55;99947.81;;;15.10;68.48
30516;BME280;17297;54.022;10.760;2023-03-23T09:31:22;99951.13;;;15.12;68.50
30516;BME280;17297;54.022;10.760;2023-03-23T09:33:48;99966.88;;;15.15;68.55
30516;BME280;17297;54.022;10.760;2023-03-23T09:36:18;99959.31;;;15.17;68.59
30516;BME280;17297;54.022;10.760;2023-03-23T09:38:43;99969.44;;;15.21;68.49
30516;BME280;17297;54.022;10.760;2023-03-23T09:49:36;99981.00;;;15.45;68.33
30516;BME280;17297;54.022;10.760;2023-03-23T09:52:11;99982.25;;;15.55;68.37
30516;BME280;17297;54.022;10.760;2023-03-23T09:54:46;99987.25;;;15.63;68.22
30516;BME280;17297;54.022;10.760;2023-03-23T09:58:14;99991.72;;;15.69;68.11
30516;BME280;17297;54.022;10.760;2023-03-23T10:00:31;99995.03;;;15.71;67.98
30516;BME280;17297;54.022;10.760;2023-03-23T10:03:02;99992.88;;;15.73;67.48
30516;BME280;17297;54.022;10.760;2023-03-23T10:05:40;100000.53;;;15.76;67.50
30516;BME280;17297;54.022;10.760;2023-03-23T10:08:13;99988.88;;;15.76;67.10
30516;BME280;17297;54.022;10.760;2023-03-23T10:16:11;99995.84;;;15.88;66.74
30516;BME280;17297;54.022;10.760;2023-03-23T10:18:43;100005.66;;;15.89;66.51
30516;BME280;17297;54.022;10.760;2023-03-23T10:21:19;100011.31;;;15.88;66.14
30516;BME280;17297;54.022;10.760;2023-03-23T10:26:25;100012.81;;;15.96;66.18
30516;BME280;17297;54.022;10.760;2023-03-23T10:29:33;100019.63;;;15.98;65.93
30516;BME280;17297;54.022;10.760;2023-03-23T10:37:22;100018.72;;;15.92;65.12
30516;BME280;17297;54.022;10.760;2023-03-23T10:39:52;100026.03;;;15.92;64.57
30516;BME280;17297;54.022;10.760;2023-03-23T10:42:49;100006.78;;;15.93;64.83
30516;BME280;17297;54.022;10.760;2023-03-23T10:45:22;100015.75;;;15.94;64.50
30516;BME280;17297;54.022;10.760;2023-03-23T10:47:52;100019.88;;;15.97;64.27
30516;BME280;17297;54.022;10.760;2023-03-23T10:50:25;100019.16;;;16.01;64.25
30516;BME280;17297;54.022;10.760;2023-03-23T10:52:52;100027.59;;;16.05;63.99
30516;BME280;17297;54.022;10.760;2023-03-23T10:55:23;100033.09;;;16.10;64.04
30516;BME280;17297;54.022;10.760;2023-03-23T10:58:03;100040.50;;;16.14;64.07
30516;BME280;17297;54.022;10.760;2023-03-23T11:00:29;100022.66;;;16.19;63.94
30516;BME280;17297;54.022;10.760;2023-03-23T11:05:48;100028.72;;;16.26;63.82
30516;BME280;17297;54.022;10.760;2023-03-23T11:08:38;100026.91;;;16.31;63.99
30516;BME280;17297;54.022;10.760;2023-03-23T11:11:15;100036.47;;;16.34;63.70
30516;BME280;17297;54.022;10.760;2023-03-23T11:13:43;100034.06;;;16.37;63.54
30516;BME280;17297;54.022;10.760;2023-03-23T11:16:10;100038.78;;;16.42;63.55
30516;BME280;17297;54.022;10.760;2023-03-23T11:18:40;100045.34;;;16.46;63.47
30516;BME280;17297;54.022;10.760;2023-03-23T11:21:11;100050.50;;;16.48;63.27
30516;BME280;17297;54.022;10.760;2023-03-23T11:23:40;100048.06;;;16.46;62.91
30516;BME280;17297;54.022;10.760;2023-03-23T11:26:28;100045.84;;;16.43;62.97
30516;BME280;17297;54.022;10.760;2023-03-23T11:31:36;100062.03;;;16.38;62.44
30516;BME280;17297;54.022;10.760;2023-03-23T11:34:09;100062.03;;;16.38;62.27
30516;BME280;17297;54.022;10.760;2023-03-23T11:36:40;100072.06;;;16.37;62.20
30516;BME280;17297;54.022;10.760;2023-03-23T11:39:21;100072.88;;;16.38;62.43
30516;BME280;17297;54.022;10.760;2023-03-23T11:41:47;100064.03;;;16.43;62.09
30516;BME280;17297;54.022;10.760;2023-03-23T11:44:13;100061.84;;;16.45;61.93
30516;BME280;17297;54.022;10.760;2023-03-23T11:49:15;100073.63;;;16.50;61.88
30516;BME280;17297;54.022;10.760;2023-03-23T11:52:16;100078.56;;;16.53;61.94
30516;BME280;17297;54.022;10.760;2023-03-23T11:54:58;100081.59;;;16.57;62.03
30516;BME280;17297;54.022;10.760;2023-03-23T11:57:27;100078.66;;;16.58;61.65
30516;BME280;17297;54.022;10.760;2023-03-23T11:59:56;100083.25;;;16.58;61.48
30516;BME280;17297;54.022;10.760;2023-03-23T12:02:55;100077.25;;;16.56;61.57
30516;BME280;17297;54.022;10.760;2023-03-23T12:05:32;100087.03;;;16.57;62.15
30516;BME280;17297;54.022;10.760;2023-03-23T12:10:50;100082.44;;;16.40;60.91
30516;BME280;17297;54.022;10.760;2023-03-23T12:14:10;100075.59;;;16.38;61.02
30516;BME280;17297;54.022;10.760;2023-03-23T12:16:33;100087.53;;;16.37;61.16
30516;BME280;17297;54.022;10.760;2023-03-23T12:19:19;100083.75;;;16.38;61.02
30516;BME280;17297;54.022;10.760;2023-03-23T12:22:03;100073.47;;;16.40;61.19
30516;BME280;17297;54.022;10.760;2023-03-23T12:30:45;100084.25;;;16.52;61.06
30516;BME280;17297;54.022;10.760;2023-03-23T12:36:09;100099.53;;;16.58;60.60
30516;BME280;17297;54.022;10.760;2023-03-23T12:44:11;100113.28;;;16.51;60.27
30516;BME280;17297;54.022;10.760;2023-03-23T12:57:16;100075.78;;;16.48;59.96
30516;BME280;17297;54.022;10.760;2023-03-23T13:03:02;100083.66;;;16.50;59.81
30516;BME280;17297;54.022;10.760;2023-03-23T13:05:38;100088.00;;;16.51;59.73
30516;BME280;17297;54.022;10.760;2023-03-23T13:08:14;100089.69;;;16.52;59.59
30516;BME280;17297;54.022;10.760;2023-03-23T13:10:47;100093.22;;;16.52;59.64
30516;BME280;17297;54.022;10.760;2023-03-23T13:13:18;100084.56;;;16.55;59.55
30516;BME280;17297;54.022;10.760;2023-03-23T13:16:06;100084.66;;;16.60;59.96
30516;BME280;17297;54.022;10.760;2023-03-23T13:21:29;100084.66;;;16.77;59.86
30516;BME280;17297;54.022;10.760;2023-03-23T13:23:59;100084.97;;;16.81;59.53
30516;BME280;17297;54.022;10.760;2023-03-23T13:26:26;100074.91;;;16.81;59.51
30516;BME280;17297;54.022;10.760;2023-03-23T13:29:08;100086.28;;;16.78;59.52
30516;BME280;17297;54.022;10.760;2023-03-23T13:31:37;100089.50;;;16.75;59.09
30516;BME280;17297;54.022;10.760;2023-03-23T13:34:25;100083.47;;;16.73;59.48
30516;BME280;17297;54.022;10.760;2023-03-23T13:37:02;100082.63;;;16.73;59.46
30516;BME280;17297;54.022;10.760;2023-03-23T13:42:29;100084.53;;;16.72;59.70
30516;BME280;17297;54.022;10.760;2023-03-23T13:45:19;100088.34;;;16.71;59.78
30516;BME280;17297;54.022;10.760;2023-03-23T13:47:46;100083.13;;;16.70;59.42
30516;BME280;17297;54.022;10.760;2023-03-23T13:50:25;100085.03;;;16.69;59.63
30516;BME280;17297;54.022;10.760;2023-03-23T13:52:54;100091.81;;;16.67;59.02
30516;BME280;17297;54.022;10.760;2023-03-23T14:10:44;100085.72;;;16.59;59.13
30516;BME280;17297;54.022;10.760;2023-03-23T14:13:30;100093.84;;;16.59;59.28
30516;BME280;17297;54.022;10.760;2023-03-23T14:16:05;100083.00;;;16.59;59.06
30516;BME280;17297;54.022;10.760;2023-03-23T14:18:39;100093.63;;;16.61;59.12
30516;BME280;17297;54.022;10.760;2023-03-23T14:21:14;100093.03;;;16.59;59.09
30516;BME280;17297;54.022;10.760;2023-03-23T14:23:39;100104.97;;;16.58;58.97
30516;BME280;17297;54.022;10.760;2023-03-23T14:26:25;100100.84;;;16.55;59.29
30516;BME280;17297;54.022;10.760;2023-03-23T14:28:52;100101.09;;;16.54;58.95
30516;BME280;17297;54.022;10.760;2023-03-23T14:31:23;100102.19;;;16.53;59.14
30516;BME280;17297;54.022;10.760;2023-03-23T14:33:50;100097.25;;;16.50;59.00
30516;BME280;17297;54.022;10.760;2023-03-23T14:36:26;100109.19;;;16.49;59.23
30516;BME280;17297;54.022;10.760;2023-03-23T14:39:03;100095.84;;;16.47;59.43
30516;BME280;17297;54.022;10.760;2023-03-23T14:41:31;100097.50;;;16.48;59.45
30516;BME280;17297;54.022;10.760;2023-03-23T14:44:00;100099.38;;;16.48;59.69
30516;BME280;17297;54.022;10.760;2023-03-23T14:46:26;100093.38;;;16.46;59.68
30516;BME280;17297;54.022;10.760;2023-03-23T14:48:52;100098.50;;;16.42;59.86
30516;BME280;17297;54.022;10.760;2023-03-23T14:51:19;100097.09;;;16.39;59.93
30516;BME280;17297;54.022;10.760;2023-03-23T14:53:45;100098.41;;;16.37;59.98
30516;BME280;17297;54.022;10.760;2023-03-23T14:56:16;100107.28;;;16.32;60.04